createdAt,value
2023-01-19T00:03:19.992Z,100733.19
2023-01-19T00:08:24.339Z,100737.72
2023-01-19T00:13:37.082Z,100737.41
2023-01-19T00:18:44.091Z,100759.00
2023-01-19T00:23:50.493Z,100786.84
2023-01-19T00:28:54.102Z,100813.38
2023-01-19T00:33:58.803Z,100840.50
2023-01-19T00:39:04.005Z,100841.91
2023-01-19T00:44:30.249Z,100843.44
2023-01-19T00:49:40.746Z,100846.41
2023-01-19T00:54:43.771Z,100862.34
2023-01-19T00:59:56.703Z,100853.97
2023-01-19T01:05:06.370Z,100854.53
2023-01-19T01:10:21.216Z,100855.28
2023-01-19T01:15:24.337Z,100853.53
2023-01-19T01:20:29.370Z,100861.66
2023-01-19T01:25:40.686Z,100850.72
2023-01-19T01:30:47.328Z,100872.88
2023-01-19T01:35:50.071Z,100869.59
2023-01-19T01:40:57.667Z,100878.78
2023-01-19T01:46:30.333Z,100904.72
2023-01-19T01:51:42.329Z,100897.28
2023-01-19T01:56:56.968Z,100906.72
2023-01-19T02:05:39.749Z,100896.34
2023-01-19T02:11:04.928Z,100889.53
2023-01-19T02:16:10.684Z,100888.47
2023-01-19T02:21:29.675Z,100896.34
2023-01-19T02:26:41.915Z,100911.94
2023-01-19T02:31:50.410Z,100929.13
2023-01-19T02:37:09.840Z,100927.50
2023-01-19T02:42:25.217Z,100937.50
2023-01-19T02:47:42.239Z,100942.69
2023-01-19T02:52:47.370Z,100952.94
2023-01-19T02:58:19.965Z,100949.97
2023-01-19T03:03:46.795Z,100958.59
2023-01-19T03:09:23.347Z,100953.75
2023-01-19T03:14:31.237Z,100937.72
2023-01-19T03:19:43.188Z,100929.59
2023-01-19T03:25:03.194Z,100937.72
2023-01-19T03:30:19.890Z,100935.03
2023-01-19T03:35:33.639Z,100923.38
2023-01-19T03:46:09.005Z,100913.69
2023-01-19T03:51:14.620Z,100916.66
2023-01-19T03:56:30.246Z,100913.84
2023-01-19T04:01:37.805Z,100913.13
2023-01-19T04:07:04.538Z,100911.50
2023-01-19T04:12:11.408Z,100912.44
2023-01-19T04:17:17.264Z,100914.56
2023-01-19T04:22:22.794Z,100892.53
2023-01-19T04:27:38.990Z,100898.09
2023-01-19T04:32:56.472Z,100903.63
2023-01-19T04:38:02.940Z,100902.09
2023-01-19T04:43:14.741Z,100898.22
2023-01-19T04:48:30.154Z,100901.03
2023-01-19T04:53:35.597Z,100925.63
2023-01-19T04:58:48.423Z,100914.44
2023-01-19T05:04:29.164Z,100924.44
2023-01-19T05:09:42.560Z,100940.06
2023-01-19T05:14:51.925Z,100935.72
2023-01-19T05:32:59.878Z,100968.75
2023-01-19T05:38:05.915Z,100973.81
2023-01-19T05:43:12.789Z,100974.25
2023-01-19T05:48:15.082Z,100969.53
2023-01-19T05:53:19.816Z,100975.19
2023-01-19T05:58:26.722Z,100978.59
2023-01-19T06:03:36.391Z,100995.13
2023-01-19T06:08:41.708Z,101002.28
2023-01-19T06:13:56.350Z,100993.00
2023-01-19T06:19:01.062Z,101002.59
2023-01-19T06:24:09.740Z,101030.84
2023-01-19T06:29:16.460Z,101037.91
2023-01-19T06:34:23.047Z,101034.59
2023-01-19T06:39:31.719Z,101063.38
2023-01-19T06:44:44.542Z,101052.34
2023-01-19T06:49:52.463Z,101054.00
2023-01-19T06:54:58.111Z,101064.19
2023-01-19T07:00:22.739Z,101074.28
2023-01-19T07:05:27.623Z,101075.94
2023-01-19T07:11:25.850Z,101076.53
2023-01-19T07:16:00.132Z,101097.34
2023-01-19T07:21:05.999Z,101086.50
2023-01-19T07:26:14.589Z,101095.81
2023-01-19T07:31:21.723Z,101117.38
2023-01-19T07:36:29.028Z,101113.84
2023-01-19T07:41:35.700Z,101132.78
2023-01-19T07:46:46.111Z,101132.31
2023-01-19T07:52:12.925Z,101153.13
2023-01-19T07:57:19.824Z,101173.34
2023-01-19T08:02:26.413Z,101194.75
2023-01-19T08:07:36.792Z,101200.31
2023-01-19T08:12:42.015Z,101200.69
2023-01-19T08:17:47.390Z,101205.63
2023-01-19T08:23:00.880Z,101210.94
2023-01-19T08:28:07.787Z,101206.81
2023-01-19T08:33:13.982Z,101205.03
2023-01-19T08:38:24.062Z,101207.13
2023-01-19T08:43:38.692Z,101232.63
2023-01-19T08:48:42.399Z,101230.06
2023-01-19T08:54:08.588Z,101248.94
2023-01-19T08:59:14.109Z,101240.88
2023-01-19T09:09:37.898Z,101262.88
2023-01-19T09:14:41.569Z,101269.16
2023-01-19T09:19:47.417Z,101271.00
2023-01-19T09:24:54.720Z,101258.03
2023-01-19T09:29:56.769Z,101257.63
2023-01-19T09:35:03.769Z,101262.38
2023-01-19T09:40:19.171Z,101265.22
2023-01-19T09:45:57.132Z,101266.25
2023-01-19T09:51:10.138Z,101272.97
2023-01-19T09:56:22.412Z,101276.28
2023-01-19T10:01:27.956Z,101278.84
2023-01-19T10:06:33.210Z,101273.47
2023-01-19T10:11:53.475Z,101269.13
2023-01-19T10:17:53.231Z,101268.34
2023-01-19T10:23:01.503Z,101272.16
2023-01-19T10:28:11.502Z,101274.34
2023-01-19T10:33:17.711Z,101266.41
2023-01-19T10:38:28.437Z,101263.84
2023-01-19T10:43:44.611Z,101253.38
2023-01-19T10:48:50.194Z,101246.00
2023-01-19T10:54:23.413Z,101240.69
2023-01-19T10:59:50.296Z,101238.06
2023-01-19T11:05:00.001Z,101220.56
2023-01-19T11:16:33.292Z,101224.72
2023-01-19T11:27:57.411Z,101204.38
2023-01-19T11:33:33.735Z,101201.59
2023-01-19T11:38:46.261Z,101199.94
2023-01-19T11:44:12.533Z,101199.94
2023-01-19T11:49:45.959Z,101191.34
2023-01-19T11:55:27.270Z,101171.28
2023-01-19T12:01:11.416Z,101171.91
2023-01-19T12:06:27.653Z,101157.50
2023-01-19T12:11:37.805Z,101143.41
2023-01-19T12:16:48.524Z,101119.59
2023-01-19T12:21:57.507Z,101125.09
2023-01-19T12:27:22.852Z,101126.59
2023-01-19T12:32:54.128Z,101119.78
2023-01-19T12:37:59.721Z,101107.34
2023-01-19T12:43:05.915Z,101109.09
2023-01-19T12:48:29.514Z,101091.97
2023-01-19T12:53:35.523Z,101074.69
2023-01-19T12:58:41.457Z,101072.22
2023-01-19T13:04:12.409Z,101055.06
2023-01-19T13:09:36.535Z,101039.59
2023-01-19T13:14:48.319Z,101033.69
2023-01-19T13:20:03.911Z,101020.25
2023-01-19T13:25:22.955Z,101018.22
2023-01-19T13:30:34.499Z,100997.38
2023-01-19T13:35:43.755Z,100993.53
2023-01-19T13:40:52.129Z,100984.47
2023-01-19T13:51:25.552Z,100976.16
2023-01-19T13:56:29.765Z,100973.13
2023-01-19T14:01:43.397Z,100973.94
2023-01-19T14:06:50.352Z,100977.28
2023-01-19T14:12:21.539Z,100970.97
2023-01-19T14:17:33.417Z,100956.59
2023-01-19T14:22:49.346Z,100960.00
2023-01-19T14:28:16.155Z,100948.56
2023-01-19T14:33:48.573Z,100947.94
2023-01-19T14:44:38.924Z,100930.88
2023-01-19T14:50:09.995Z,100926.28
2023-01-19T14:55:41.368Z,100920.16
2023-01-19T15:00:46.219Z,100927.94
2023-01-19T15:05:51.133Z,100902.84
2023-01-19T15:11:15.966Z,100899.03
2023-01-19T15:16:22.840Z,100897.97
2023-01-19T15:21:31.036Z,100896.88
2023-01-19T15:26:40.685Z,100879.59
2023-01-19T15:31:48.030Z,100862.41
2023-01-19T15:36:52.230Z,100862.47
2023-01-19T15:42:00.735Z,100856.81
2023-01-19T15:47:06.014Z,100847.84
2023-01-19T15:52:11.230Z,100857.75
2023-01-19T15:57:18.789Z,100849.09
2023-01-19T16:02:23.168Z,100846.72
2023-01-19T16:07:29.766Z,100850.28
2023-01-19T16:12:34.242Z,100838.56
2023-01-19T16:17:40.844Z,100826.88
2023-01-19T16:22:56.524Z,100814.66
2023-01-19T16:28:02.047Z,100811.44
2023-01-19T16:33:08.548Z,100799.13
2023-01-19T16:38:15.881Z,100780.56
2023-01-19T16:43:21.229Z,100784.41
2023-01-19T16:48:30.732Z,100781.16
2023-01-19T16:53:37.168Z,100774.06
2023-01-19T16:58:39.657Z,100766.72
2023-01-19T17:03:47.269Z,100760.19
2023-01-19T17:08:55.558Z,100750.63
2023-01-19T17:14:01.790Z,100752.53
2023-01-19T17:19:32.169Z,100742.97
2023-01-19T17:24:42.424Z,100723.34
2023-01-19T17:29:57.672Z,100709.16
2023-01-19T17:35:03.272Z,100704.22
2023-01-19T17:40:12.371Z,100691.69
2023-01-19T17:45:19.041Z,100698.22
2023-01-19T17:50:33.888Z,100688.94
2023-01-19T17:55:42.684Z,100678.56
2023-01-19T18:00:50.330Z,100670.41
2023-01-19T18:05:59.981Z,100670.41
2023-01-19T18:11:09.307Z,100676.66
2023-01-19T18:16:25.979Z,100681.84
2023-01-19T18:26:56.003Z,100655.66
2023-01-19T18:37:35.624Z,100623.44
2023-01-19T18:42:40.115Z,100610.59
2023-01-19T18:47:45.193Z,100604.31
2023-01-19T18:52:51.739Z,100589.59
2023-01-19T18:57:56.679Z,100591.78
2023-01-19T19:03:00.876Z,100586.88
2023-01-19T19:08:18.183Z,100559.03
2023-01-19T19:13:32.077Z,100554.41
2023-01-19T19:18:53.438Z,100530.13
2023-01-19T19:24:03.422Z,100513.25
2023-01-19T19:29:33.766Z,100496.38
2023-01-19T19:34:42.524Z,100493.94
2023-01-19T19:39:47.187Z,100498.88
2023-01-19T19:44:53.548Z,100475.66
2023-01-19T19:50:07.497Z,100473.78
2023-01-19T20:00:34.767Z,100437.28
2023-01-19T20:05:44.053Z,100416.03
2023-01-19T20:11:19.150Z,100407.59
2023-01-19T20:16:30.303Z,100390.97
2023-01-19T20:22:02.618Z,100387.19
2023-01-19T20:27:06.883Z,100376.59
2023-01-19T20:32:16.984Z,100355.34
2023-01-19T20:37:23.914Z,100343.34
2023-01-19T20:42:27.241Z,100316.38
2023-01-19T20:47:32.483Z,100310.94
2023-01-19T20:52:37.567Z,100304.16
2023-01-19T20:57:41.488Z,100271.22
2023-01-19T21:08:10.032Z,100263.34
2023-01-19T21:13:16.628Z,100254.09
2023-01-19T21:18:21.289Z,100244.84
2023-01-19T21:23:29.006Z,100202.91
2023-01-19T21:28:58.391Z,100202.13
2023-01-19T21:34:07.965Z,100187.72
2023-01-19T21:39:17.196Z,100177.91
2023-01-19T21:44:25.601Z,100161.63
2023-01-19T21:55:01.434Z,100111.25
2023-01-19T22:00:11.346Z,100118.59
2023-01-19T22:05:17.858Z,100115.59
2023-01-19T22:10:22.011Z,100110.41
2023-01-19T22:15:34.638Z,100108.22
2023-01-19T22:20:41.823Z,100083.16
2023-01-19T22:25:54.152Z,100085.34
2023-01-19T22:31:16.140Z,100088.03
2023-01-19T22:36:41.103Z,100096.19
2023-01-19T22:47:07.857Z,100087.13
2023-01-19T22:52:25.444Z,100083.84
2023-01-19T22:57:39.980Z,100076.84
2023-01-19T23:02:42.275Z,100082.00
2023-01-19T23:07:48.070Z,100097.69
2023-01-19T23:12:53.543Z,100118.31
2023-01-19T23:18:05.291Z,100109.53
2023-01-19T23:23:11.419Z,100130.41
2023-01-19T23:28:23.219Z,100131.72
2023-01-19T23:33:30.709Z,100127.06
2023-01-19T23:38:33.895Z,100132.47
2023-01-19T23:43:39.876Z,100146.06
2023-01-19T23:48:47.693Z,100145.78
2023-01-19T23:53:58.888Z,100157.50
2023-01-19T23:59:10.817Z,100171.38
